Latest Coastal Weather Observations for Noarlunga

IDS60701

Issued at 2:41 am CST Tuesday 16 July 2024 (issued every 10 minutes, with the page automatically refreshed every 10 minutes)

About coastal observations | Map of coastal stations | Coastal observations for SA | Marine services | Other Formats
Station Details ID: 023885 Name: NOARLUNGA Lat: -35.16 Lon: 138.51 Height: 55.0 m
Data from the previous 72 hours. | See also: Recent months at Noarlunga
Date/Time
CST
Wind Sea
Height
m
Swell Vis
km
Cloud Weather Temp
°C
Press
MSL
hPa
Rain since
9am
mm
Dir  Spd
kts
Gust
kts
Height
m
Period
s
Dir
16/02:30am S 3 5 - - - - - - - 8.4 - 1.2
16/02:00am S 6 11 - - - - - - - 8.8 - 1.2
16/01:30am SW 4 8 - - - - - - - 8.9 - 1.2
16/01:00am SSW 5 10 - - - - - - - 9.2 - 1.2
16/12:30am SSW 5 9 - - - - - - - 9.0 - 1.2
16/12:00am SSW 4 7 - - - - - - - 8.7 - 1.2
 
Date/Time
CST
Wind Sea
Height
m
Swell Vis
km
Cloud Weather Temp
°C
Press
MSL
hPa
Rain since
9am
mm
Dir  Spd
kts
Gust
kts
Height
m
Period
s
Dir
15/11:30pm SSW 3 5 - - - - - - - 8.8 - 1.2
15/11:00pm SSW 6 13 - - - - - - - 9.4 - 1.2
15/10:30pm S 6 11 - - - - - - - 9.3 - 1.2
15/10:00pm SSW 7 14 - - - - - - - 9.8 - 1.2
15/09:30pm SSW 5 10 - - - - - - - 9.8 - 1.2
15/09:00pm SSW 5 10 - - - - - - Recent precip. 10.0 - 1.2
15/08:30pm SSW 5 9 - - - - - - - 9.7 - 1.2
15/08:00pm SSW 5 8 - - - - - - - 9.5 - 1.0
15/07:30pm SSW 6 11 - - - - - - - 9.6 - 1.0
15/07:00pm SSW 3 6 - - - - - - - 9.7 - 1.0
15/06:30pm SSW 3 5 - - - - - - - 9.2 - 0.8
15/06:00pm S 4 6 - - - - - - - 9.4 - 0.8
15/05:30pm SSW 5 10 - - - - - - - 9.8 - 0.8
15/05:00pm SSW 4 8 - - - - - - - 9.6 - 0.8
15/04:30pm SSW 9 15 - - - - - - - 9.9 - 0.8
15/04:00pm SW 8 15 - - - - - - - 10.7 - 0.6
15/03:30pm SSW 8 13 - - - - - - - 11.4 - 0.6
15/03:00pm SSW 9 15 - - - - - - - 12.2 - 0.6
15/02:30pm SW 9 16 - - - - - - - 13.1 - 0.6
15/02:00pm SSW 9 17 - - - - - - - 12.9 - 0.6
15/01:30pm SW 11 16 - - - - - - - 12.6 - 0.6
15/01:00pm SSW 8 14 - - - - - - - 12.2 - 0.6
15/12:30pm SSW 7 13 - - - - - - - 11.8 - 0.6
15/12:00pm SSW 5 12 - - - - - - Recent precip. 11.5 - 0.6
15/11:30am SSW 7 13 - - - - - - - 11.0 - 0.6
15/11:00am SW 9 16 - - - - - - - 10.9 - 0.0
15/10:30am SSW 6 11 - - - - - - - 11.8 - 0.0
15/10:00am SSW 1 3 - - - - - - - 11.6 - 0.0
15/09:30am CALM 0 0 - - - - - - - 10.4 - 0.0
15/09:00am CALM 0 0 - - - - - - - 9.9 - 1.8
15/08:30am CALM 0 0 - - - - - - - 8.6 - 1.8
15/08:00am SE 1 2 - - - - - - - 7.7 - 1.8
15/07:30am CALM 0 3 - - - - - - - 7.2 - 1.8
15/07:00am CALM 0 0 - - - - - - - 7.0 - 1.8
15/06:30am CALM 0 0 - - - - - - - 7.3 - 1.8
15/06:00am SSE 1 2 - - - - - - - 7.8 - 1.8
15/05:30am SSE 4 7 - - - - - - - 8.4 - 1.8
15/05:00am SSE 2 5 - - - - - - - 8.0 - 1.8
15/04:30am SSE 2 3 - - - - - - - 7.3 - 1.8
15/04:00am S 2 4 - - - - - - - 8.0 - 1.8
15/03:30am S 2 4 - - - - - - - 8.6 - 1.8
15/03:00am SSE 1 3 - - - - - - - 8.6 - 1.8
15/02:30am S 1 3 - - - - - - - 8.3 - 1.8
15/02:00am CALM 0 0 - - - - - - - 8.4 - 1.8
15/01:30am SE 1 2 - - - - - - - 8.3 - 1.8
15/01:00am SE 2 4 - - - - - - - 8.6 - 1.6
15/12:30am CALM 0 0 - - - - - - - 8.3 - 1.6
15/12:00am ENE 1 3 - - - - - - Rain 8.6 - 1.2
 
Date/Time
CST
Wind Sea
Height
m
Swell Vis
km
Cloud Weather Temp
°C
Press
MSL
hPa
Rain since
9am
mm
Dir  Spd
kts
Gust
kts
Height
m
Period
s
Dir
14/11:30pm CALM 0 0 - - - - - - - 8.2 - 0.0
14/11:00pm CALM 0 0 - - - - - - - 8.1 - 0.0
14/10:30pm CALM 0 0 - - - - - - - 8.5 - 0.0
14/10:00pm CALM 0 0 - - - - - - - 9.0 - 0.0
14/09:30pm CALM 0 0 - - - - - - - 9.4 - 0.0
14/09:00pm CALM 0 0 - - - - - - - 9.4 - 0.0
14/08:30pm S 1 2 - - - - - - - 9.4 - 0.0
14/08:00pm CALM 0 0 - - - - - - - 9.6 - 0.0
14/07:30pm CALM 0 0 - - - - - - - 10.0 - 0.0
14/07:00pm CALM 0 0 - - - - - - - 10.5 - 0.0
14/06:30pm CALM 0 0 - - - - - - - 10.8 - 0.0
14/06:00pm SW 1 3 - - - - - - - 11.2 - 0.0
14/05:30pm SW 3 6 - - - - - - - 11.7 - 0.0
14/05:00pm SW 3 5 - - - - - - - 12.0 - 0.0
14/04:30pm SW 5 8 - - - - - - - 12.7 - 0.0
14/04:00pm SSW 5 9 - - - - - - - 13.2 - 0.0
14/03:30pm SW 6 10 - - - - - - - 13.6 - 0.0
14/03:00pm SW 7 13 - - - - - - - 13.5 - 0.0
14/02:30pm W 6 11 - - - - - - - 14.2 - 0.0
14/02:00pm W 6 9 - - - - - - - 14.4 - 0.0
14/01:30pm WSW 5 8 - - - - - - - 13.6 - 0.0
14/01:00pm WSW 6 10 - - - - - - - 13.6 - 0.0
14/12:30pm W 6 9 - - - - - - - 13.4 - 0.0
14/12:00pm W 4 7 - - - - - - - 13.7 - 0.0
14/11:30am W 3 7 - - - - - - - 13.1 - 0.0
14/11:00am W 3 5 - - - - - - - 13.0 - 0.0
14/10:30am WSW 3 6 - - - - - - - 12.6 - 0.0
14/10:00am W 1 4 - - - - - - - 12.2 - 0.0
14/09:30am CALM 0 0 - - - - - - - 12.1 - 0.0
14/09:00am CALM 0 0 - - - - - - - 11.5 - 0.2
14/08:30am E 2 4 - - - - - - - 10.0 - 0.2
14/08:00am ESE 1 3 - - - - - - - 8.7 - 0.2
14/07:30am ESE 2 4 - - - - - - - 8.2 - 0.2
14/07:00am ESE 2 2 - - - - - - - 7.7 - 0.2
14/06:30am ESE 2 3 - - - - - - - 7.7 - 0.2
14/06:00am CALM 0 0 - - - - - - - 7.5 - 0.2
14/05:30am CALM 0 0 - - - - - - - 7.5 - 0.2
14/05:00am CALM 0 0 - - - - - - - 8.0 - 0.2
14/04:30am CALM 0 0 - - - - - - - 8.0 - 0.2
14/04:00am CALM 0 0 - - - - - - - 8.1 - 0.2
14/03:30am CALM 0 0 - - - - - - - 8.9 - 0.2
14/03:00am CALM 0 0 - - - - - - Rain 9.2 - 0.2
14/02:30am CALM 0 0 - - - - - - - 9.2 - 0.0
14/02:00am CALM 0 0 - - - - - - - 9.2 - 0.0
14/01:30am CALM 0 0 - - - - - - - 9.2 - 0.0
14/01:00am CALM 0 0 - - - - - - - 9.4 - 0.0
14/12:30am CALM 0 0 - - - - - - - 9.7 - 0.0
14/12:00am CALM 0 0 - - - - - - - 9.9 - 0.0
 
Date/Time
CST
Wind Sea
Height
m
Swell Vis
km
Cloud Weather Temp
°C
Press
MSL
hPa
Rain since
9am
mm
Dir  Spd
kts
Gust
kts
Height
m
Period
s
Dir
13/11:30pm CALM 0 0 - - - - - - - 10.7 - 0.0
13/11:00pm CALM 0 0 - - - - - - - 10.9 - 0.0
13/10:30pm CALM 0 0 - - - - - - - 11.3 - 0.0
13/10:00pm CALM 0 0 - - - - - - - 11.4 - 0.0
13/09:30pm CALM 0 0 - - - - - - - 11.4 - 0.0
13/09:00pm CALM 0 0 - - - - - - - 11.4 - 0.0
13/08:30pm WNW 3 4 - - - - - - - 11.6 - 0.0
13/08:00pm CALM 0 0 - - - - - - - 11.7 - 0.0
13/07:30pm NW 3 6 - - - - - - - 11.8 - 0.0
13/07:00pm N 2 2 - - - - - - - 11.5 - 0.0
13/06:30pm N 2 5 - - - - - - - 11.4 - 0.0
13/06:00pm NNW 2 4 - - - - - - - 11.6 - 0.0
13/05:30pm NNW 3 4 - - - - - - - 11.8 - 0.0
13/05:00pm NNW 4 7 - - - - - - - 12.2 - 0.0
13/04:30pm NW 5 8 - - - - - - - 12.4 - 0.0
13/04:00pm WNW 6 9 - - - - - - - 12.8 - 0.0
13/03:30pm NW 6 8 - - - - - - - 13.3 - 0.0
13/03:00pm NW 5 9 - - - - - - - 13.9 - 0.0
13/02:30pm NW 5 9 - - - - - - - 15.3 - 0.0
13/02:00pm NW 6 10 - - - - - - - 14.8 - 0.0
13/01:30pm NNW 6 9 - - - - - - - 14.6 - 0.0
13/01:00pm NW 6 9 - - - - - - - 14.8 - 0.0
13/12:30pm NW 6 10 - - - - - - - 14.1 - 0.0
13/12:00pm NW 5 9 - - - - - - - 14.3 - 0.0
13/11:30am NW 6 10 - - - - - - - 13.4 - 0.0
13/11:00am NNW 5 9 - - - - - - - 13.7 - 0.0
13/10:30am N 5 7 - - - - - - - 13.1 - 0.0
13/10:00am N 5 9 - - - - - - - 12.4 - 0.0
13/09:30am NNE 4 7 - - - - - - - 11.2 - 0.0
13/09:00am NNE 4 6 - - - - - - - 11.3 - 0.4
13/08:30am NNE 4 6 - - - - - - - 9.9 - 0.4
13/08:00am NNE 4 5 - - - - - - - 9.8 - 0.4
13/07:30am NNE 3 5 - - - - - - - 9.4 - 0.2
13/07:00am NE 3 4 - - - - - - - 9.6 - 0.2
13/06:30am CALM 0 0 - - - - - - - 9.6 - 0.2
13/06:00am NE 1 3 - - - - - - - 9.6 - 0.2
13/05:30am NE 2 3 - - - - - - - 10.4 - 0.2
13/05:00am W 1 1 - - - - - - - 10.8 - 0.2
13/04:30am CALM 0 0 - - - - - - - 10.9 - 0.2
13/04:00am CALM 0 0 - - - - - - - 11.1 - 0.2
13/03:30am CALM 0 1 - - - - - - - 11.2 - 0.2
13/03:00am CALM 0 0 - - - - - - - 11.2 - 0.2

Other formats

Comma delimited format used in spreadsheet applications
http://www.bom.gov.au/fwo/IDS60701/IDS60701.94808.axf

JavaScript Object Notation format (JSON) in row-major order
http://www.bom.gov.au/fwo/IDS60701/IDS60701.94808.json

Data quality

Most of these data are generated automatically and are frequently updated. Quality checks on data are not normally performed. It is possible for incorrect values to appear. Refer to information at About Latest Weather Observations and please check the disclaimer before using these data.